Time;durP1;ratioP1;P1;durP2;ratioP2;P2;SDS_P1;SDS_P2;PMS_P1;PMS_P2;Temp;Humidity;BMP_temperature;BMP_pressure;BME280_temperature;BME280_humidity;BME280_pressure;Samples;Min_cycle;Max_cycle;Signal;HPM_P1;HPM_P2
2021/12/28 00:02:00;;;;;;;55.90;25.27;;;8.90;99.90;;;;;;5073357;28;20021;-75
2021/12/28 00:04:25;;;;;;;60.13;23.92;;;8.90;99.90;;;;;;5073073;28;20021;-75
2021/12/28 00:06:51;;;;;;;58.15;22.73;;;8.90;99.90;;;;;;5074076;28;20028;-75
2021/12/28 00:09:16;;;;;;;53.17;23.65;;;8.90;99.90;;;;;;5074374;28;20513;-75
2021/12/28 00:11:42;;;;;;;51.35;23.13;;;9.00;99.90;;;;;;5074131;28;20025;-75
2021/12/28 00:14:08;;;;;;;59.47;24.45;;;8.90;99.90;;;;;;5073946;28;20056;-75
2021/12/28 00:19:18;;;;;;;64.82;25.10;;;8.80;99.90;;;;;;5073905;28;20040;-75
2021/12/28 00:21:43;;;;;;;53.85;23.98;;;8.80;99.90;;;;;;5073484;28;20024;-75
2021/12/28 00:24:09;;;;;;;55.85;22.52;;;8.80;99.90;;;;;;5093645;28;20537;-75
2021/12/28 00:26:35;;;;;;;54.47;22.67;;;8.80;99.90;;;;;;5094124;28;20028;-75
2021/12/28 00:29:00;;;;;;;57.33;23.50;;;8.70;99.90;;;;;;5093743;28;20362;-75
2021/12/28 00:31:26;;;;;;;53.38;21.92;;;8.70;99.90;;;;;;5075789;28;20110;-75
2021/12/28 00:33:53;;;;;;;55.78;20.75;;;8.70;99.90;;;;;;5093723;28;20330;-75
2021/12/28 00:36:19;;;;;;;63.15;22.83;;;8.70;99.90;;;;;;5093767;28;20027;-75
2021/12/28 00:38:45;;;;;;;49.88;19.30;;;8.70;99.90;;;;;;5093800;28;20043;-75
2021/12/28 00:41:11;;;;;;;48.95;19.83;;;8.70;99.90;;;;;;5075400;28;20074;-74
2021/12/28 00:43:37;;;;;;;49.40;21.50;;;8.70;99.90;;;;;;5093691;28;20458;-75
2021/12/28 00:46:05;;;;;;;47.10;19.90;;;8.60;99.90;;;;;;5093648;28;20064;-74
2021/12/28 00:48:31;;;;;;;49.05;18.80;;;8.60;99.90;;;;;;5093418;28;20020;-75
2021/12/28 00:50:57;;;;;;;46.45;18.13;;;8.60;99.90;;;;;;5057596;28;20027;-75
2021/12/28 00:53:23;;;;;;;46.47;18.20;;;8.60;99.90;;;;;;5073119;28;20390;-75
2021/12/28 00:55:49;;;;;;;39.65;17.10;;;8.50;99.90;;;;;;5055058;28;20414;-75
2021/12/28 00:58:16;;;;;;;45.58;17.75;;;8.50;99.90;;;;;;5073145;28;20051;-75
2021/12/28 01:00:41;;;;;;;51.53;17.58;;;8.40;99.90;;;;;;5078892;28;20051;-75
2021/12/28 01:03:08;;;;;;;46.40;16.85;;;8.40;99.90;;;;;;5092942;28;20048;-75
2021/12/28 01:05:35;;;;;;;49.70;17.30;;;8.40;99.90;;;;;;5093175;28;20065;-75
2021/12/28 01:08:01;;;;;;;41.03;16.38;;;8.30;99.90;;;;;;5074546;28;20054;-75
2021/12/28 01:10:33;;;;;;;40.20;17.63;;;8.20;99.90;;;;;;5093138;28;20028;-75
2021/12/28 01:12:59;;;;;;;43.60;16.55;;;8.20;99.90;;;;;;5093133;28;20039;-75
2021/12/28 01:15:26;;;;;;;37.38;15.95;;;8.30;99.90;;;;;;5093218;28;20028;-75
2021/12/28 01:17:52;;;;;;;43.45;16.42;;;8.20;99.90;;;;;;5093110;28;20077;-75
2021/12/28 01:20:18;;;;;;;45.67;16.75;;;8.20;99.90;;;;;;5086672;28;20091;-75
2021/12/28 01:22:45;;;;;;;44.67;16.70;;;8.10;99.90;;;;;;5072767;28;20025;-75
2021/12/28 01:25:12;;;;;;;39.40;16.67;;;8.10;99.90;;;;;;5072643;28;20122;-75
2021/12/28 01:27:38;;;;;;;51.15;16.27;;;8.10;99.90;;;;;;5072615;28;20024;-75
2021/12/28 01:30:07;;;;;;;47.35;16.50;;;8.10;99.90;;;;;;5072709;28;20240;-75
2021/12/28 01:32:33;;;;;;;44.70;15.48;;;8.10;99.90;;;;;;5072576;28;20112;-75
2021/12/28 01:34:59;;;;;;;52.95;15.40;;;8.10;99.90;;;;;;5072429;28;20398;-75
2021/12/28 01:37:24;;;;;;;41.20;14.98;;;8.20;99.90;;;;;;5054534;28;20038;-75
2021/12/28 01:39:50;;;;;;;56.80;15.85;;;8.20;99.90;;;;;;5072389;28;20019;-75
2021/12/28 01:42:15;;;;;;;58.25;15.75;;;8.20;99.90;;;;;;5072399;28;20024;-75
2021/12/28 01:44:41;;;;;;;46.33;15.25;;;8.30;99.90;;;;;;5072473;28;20044;-75
2021/12/28 01:47:07;;;;;;;41.80;12.88;;;8.30;99.90;;;;;;5054492;28;20082;-75
2021/12/28 01:49:32;;;;;;;46.22;13.63;;;8.40;99.90;;;;;;5078189;28;20028;-75
2021/12/28 01:51:58;;;;;;;35.72;13.00;;;8.30;99.90;;;;;;5092518;28;20042;-75
2021/12/28 01:54:24;;;;;;;34.95;12.93;;;8.40;99.90;;;;;;5092441;28;20756;-75
2021/12/28 01:56:50;;;;;;;39.58;12.93;;;8.30;99.90;;;;;;5092482;28;20039;-75
2021/12/28 01:59:19;;;;;;;45.17;13.50;;;8.40;99.90;;;;;;5092053;28;20020;-75
2021/12/28 02:01:46;;;;;;;41.13;11.20;;;8.40;99.90;;;;;;5091965;28;20608;-75
2021/12/28 02:04:16;;;;;;;32.20;10.80;;;8.40;99.90;;;;;;5091834;28;20027;-75
2021/12/28 02:06:43;;;;;;;41.25;10.68;;;8.40;99.90;;;;;;5091835;28;20028;-75
2021/12/28 02:09:09;;;;;;;39.63;10.13;;;8.50;99.90;;;;;;5091039;28;20032;-75
2021/12/28 02:11:35;;;;;;;42.65;11.02;;;8.50;99.90;;;;;;5092095;28;20473;-75
2021/12/28 02:14:01;;;;;;;42.33;11.52;;;8.50;99.90;;;;;;5092359;28;20036;-75
2021/12/28 02:16:27;;;;;;;36.42;10.90;;;8.50;99.90;;;;;;5094770;28;20024;-75
2021/12/28 02:18:53;;;;;;;33.35;10.13;;;8.50;99.90;;;;;;5096410;28;20024;-75
2021/12/28 02:21:18;;;;;;;33.90;10.68;;;8.50;99.90;;;;;;5078138;28;20038;-75
2021/12/28 02:23:44;;;;;;;36.33;11.73;;;8.50;99.90;;;;;;5096231;28;20044;-75
2021/12/28 02:26:10;;;;;;;33.78;10.32;;;8.50;99.90;;;;;;5096514;28;20536;-75
2021/12/28 02:28:35;;;;;;;38.47;9.40;;;8.50;99.90;;;;;;5096203;28;20474;-75
2021/12/28 02:31:02;;;;;;;38.78;9.68;;;8.40;99.90;;;;;;5096128;28;20202;-75
2021/12/28 02:33:28;;;;;;;43.95;10.00;;;8.50;99.90;;;;;;5096263;28;20032;-75
2021/12/28 02:36:00;;;;;;;30.88;8.80;;;8.40;99.90;;;;;;5096008;28;20036;-74
2021/12/28 02:38:27;;;;;;;39.97;10.50;;;8.40;99.90;;;;;;5096275;28;20039;-75
2021/12/28 02:40:53;;;;;;;34.45;9.82;;;8.40;99.90;;;;;;5096199;28;20017;-75
2021/12/28 02:43:19;;;;;;;41.20;9.32;;;8.40;99.90;;;;;;5095896;28;20327;-74
2021/12/28 02:46:02;;;;;;;40.53;9.48;;;8.50;99.90;;;;;;5095917;28;20097;-74
2021/12/28 02:48:27;;;;;;;37.20;9.48;;;8.50;99.90;;;;;;5077749;28;20039;-75
2021/12/28 02:50:57;;;;;;;46.35;10.70;;;8.50;99.90;;;;;;5095779;28;20066;-74
2021/12/28 02:53:24;;;;;;;43.88;9.63;;;8.50;99.90;;;;;;5095705;28;20081;-74
2021/12/28 02:55:50;;;;;;;40.95;8.43;;;8.50;99.90;;;;;;5095800;28;20032;-74
2021/12/28 02:58:46;;;;;;;37.42;8.05;;;8.40;99.90;;;;;;5095660;28;20078;-74
2021/12/28 03:01:16;;;;;;;41.33;7.47;;;8.40;99.90;;;;;;5094568;28;20040;-74
2021/12/28 03:03:43;;;;;;;37.65;8.02;;;8.40;99.90;;;;;;5095732;28;20035;-74
2021/12/28 03:06:13;;;;;;;38.80;7.13;;;8.40;99.90;;;;;;5095455;28;20038;-74
2021/12/28 03:08:43;;;;;;;44.33;7.55;;;8.40;99.90;;;;;;5095688;28;20028;-74
2021/12/28 03:11:10;;;;;;;33.05;7.18;;;8.40;99.90;;;;;;5095397;28;20020;-74
2021/12/28 03:13:43;;;;;;;35.90;6.65;;;8.50;99.90;;;;;;5077151;28;20024;-74
2021/12/28 03:16:09;;;;;;;32.55;6.63;;;8.50;99.90;;;;;;5095332;28;20051;-74
2021/12/28 03:18:35;;;;;;;33.83;7.90;;;8.50;99.90;;;;;;5095257;28;20026;-74
2021/12/28 03:21:02;;;;;;;43.85;6.55;;;8.50;99.90;;;;;;5082909;28;20078;-74
2021/12/28 03:23:28;;;;;;;42.10;7.18;;;8.50;99.90;;;;;;5074559;28;20067;-74
2021/12/28 03:25:55;;;;;;;36.90;6.53;;;8.60;99.90;;;;;;5055496;28;20059;-74
2021/12/28 03:28:28;;;;;;;40.10;9.57;;;8.60;99.90;;;;;;5055372;28;20475;-74
2021/12/28 03:30:56;;;;;;;42.47;7.45;;;8.60;99.90;;;;;;5073770;28;20060;-74
2021/12/28 03:33:23;;;;;;;43.25;7.50;;;8.70;99.90;;;;;;5055861;28;20115;-74
2021/12/28 03:35:49;;;;;;;36.75;6.25;;;8.70;99.90;;;;;;5073724;28;20031;-74
2021/12/28 03:38:16;;;;;;;41.45;6.57;;;8.70;99.90;;;;;;5073413;28;20032;-74
2021/12/28 03:40:42;;;;;;;28.88;6.63;;;8.70;99.90;;;;;;5073624;28;20076;-74
2021/12/28 03:43:08;;;;;;;41.63;6.20;;;8.70;99.90;;;;;;5055346;28;20021;-74
2021/12/28 03:45:34;;;;;;;39.72;5.88;;;8.70;99.90;;;;;;5073363;28;20344;-74
2021/12/28 03:48:00;;;;;;;32.22;6.35;;;8.70;99.90;;;;;;5055453;28;20056;-74
2021/12/28 03:50:25;;;;;;;41.55;6.65;;;8.70;99.90;;;;;;5073351;28;20032;-74
2021/12/28 03:52:55;;;;;;;27.92;6.25;;;8.70;99.90;;;;;;5073336;28;20608;-74
2021/12/28 03:55:23;;;;;;;27.45;7.03;;;8.70;99.90;;;;;;5073227;28;20021;-74
2021/12/28 03:57:50;;;;;;;43.33;7.10;;;8.70;99.90;;;;;;5073006;28;20025;-74
2021/12/28 04:00:19;;;;;;;33.08;5.60;;;8.60;99.90;;;;;;5073298;28;20016;-74
2021/12/28 04:02:45;;;;;;;37.90;6.20;;;8.70;99.90;;;;;;5073151;28;20035;-74
2021/12/28 04:05:11;;;;;;;27.95;5.32;;;8.60;99.90;;;;;;5073152;28;20378;-74
2021/12/28 04:07:38;;;;;;;30.33;5.40;;;8.70;99.90;;;;;;5083141;28;20378;-74
2021/12/28 04:10:07;;;;;;;40.97;5.70;;;8.60;99.90;;;;;;5093353;28;20103;-74
2021/12/28 04:12:33;;;;;;;37.72;5.72;;;8.60;99.90;;;;;;5093074;28;20027;-74
2021/12/28 04:15:00;;;;;;;29.42;5.53;;;8.70;99.90;;;;;;5092816;28;20035;-74
2021/12/28 04:17:27;;;;;;;43.33;7.70;;;8.60;99.90;;;;;;5092849;28;20028;-74
2021/12/28 04:19:53;;;;;;;32.20;5.93;;;8.70;99.90;;;;;;5087312;28;20073;-74
2021/12/28 04:22:19;;;;;;;38.10;5.85;;;8.70;99.90;;;;;;5070967;28;20020;-74
2021/12/28 04:24:45;;;;;;;28.58;5.15;;;8.60;99.90;;;;;;5034910;28;1097137;-74
2021/12/28 04:27:10;;;;;;;33.60;6.65;;;8.60;99.90;;;;;;5055695;28;20028;-74
2021/12/28 04:29:36;;;;;;;29.25;6.47;;;8.60;99.90;;;;;;5073959;28;20099;-74
2021/12/28 04:32:02;;;;;;;31.77;7.40;;;8.60;99.90;;;;;;5055684;28;20320;-74
2021/12/28 04:34:28;;;;;;;43.03;7.57;;;8.60;99.90;;;;;;5055529;28;20111;-74
2021/12/28 04:36:54;;;;;;;30.77;6.03;;;8.60;99.90;;;;;;5073409;28;20107;-74
2021/12/28 04:39:19;;;;;;;31.13;6.20;;;8.60;99.90;;;;;;5072493;28;20025;-74
2021/12/28 04:41:45;;;;;;;31.10;6.93;;;8.60;99.90;;;;;;5073602;28;20036;-74
2021/12/28 04:44:13;;;;;;;30.27;5.57;;;8.60;99.90;;;;;;5073289;28;20029;-74
2021/12/28 04:46:39;;;;;;;26.58;5.25;;;8.60;99.90;;;;;;5073494;28;20375;-74
2021/12/28 04:49:05;;;;;;;30.35;5.10;;;8.60;99.90;;;;;;5055163;28;20478;-74
2021/12/28 04:51:32;;;;;;;29.48;5.05;;;8.60;99.90;;;;;;5073414;28;20036;-74
2021/12/28 04:54:00;;;;;;;30.05;5.47;;;8.60;99.90;;;;;;5073275;28;20021;-74
2021/12/28 04:56:25;;;;;;;23.35;4.95;;;8.60;99.90;;;;;;5073155;28;20028;-74
2021/12/28 04:58:51;;;;;;;35.20;6.30;;;8.60;99.90;;;;;;5073090;28;20103;-74
2021/12/28 05:01:17;;;;;;;30.80;5.45;;;8.60;99.90;;;;;;5073346;28;20044;-74
2021/12/28 05:03:43;;;;;;;28.98;5.30;;;8.60;99.90;;;;;;5072952;28;20441;-74
2021/12/28 05:06:08;;;;;;;24.45;5.38;;;8.70;99.90;;;;;;5072619;28;20024;-74
2021/12/28 05:08:34;;;;;;;24.10;5.35;;;8.70;99.90;;;;;;5090823;28;20032;-74
2021/12/28 05:11:00;;;;;;;27.23;4.97;;;8.70;99.90;;;;;;5093102;28;20024;-74
2021/12/28 05:13:26;;;;;;;23.55;4.75;;;8.80;99.90;;;;;;5093132;28;20028;-74
2021/12/28 05:15:53;;;;;;;28.80;5.47;;;8.80;99.90;;;;;;5093198;28;20028;-74
2021/12/28 05:18:19;;;;;;;26.33;4.60;;;8.80;99.90;;;;;;5093105;28;20379;-74
2021/12/28 05:20:46;;;;;;;27.63;5.45;;;8.70;99.90;;;;;;5093057;28;20385;-74
2021/12/28 05:23:13;;;;;;;27.33;5.97;;;8.80;99.90;;;;;;5092972;28;20028;-74
2021/12/28 05:25:39;;;;;;;28.33;6.07;;;8.80;99.90;;;;;;5092666;28;20566;-74
2021/12/28 05:28:06;;;;;;;24.40;4.10;;;8.80;99.90;;;;;;5074584;28;20051;-74
2021/12/28 05:30:33;;;;;;;29.98;5.28;;;8.70;99.90;;;;;;5092720;28;20355;-74
2021/12/28 05:32:59;;;;;;;27.83;4.40;;;8.80;99.90;;;;;;5092727;28;20053;-74
2021/12/28 05:35:25;;;;;;;34.65;4.90;;;8.90;99.90;;;;;;5092389;28;20115;-74
2021/12/28 05:37:51;;;;;;;19.77;4.72;;;8.90;99.90;;;;;;5092629;28;20024;-74
2021/12/28 05:40:17;;;;;;;20.58;4.40;;;8.90;99.90;;;;;;5074498;28;20028;-74
2021/12/28 05:42:43;;;;;;;20.00;4.60;;;8.90;99.90;;;;;;5092531;28;20024;-74
2021/12/28 05:45:10;;;;;;;24.48;5.60;;;8.90;99.90;;;;;;5092737;28;20032;-74
2021/12/28 05:47:36;;;;;;;25.83;4.85;;;9.00;99.90;;;;;;5092604;28;20031;-74
2021/12/28 05:50:04;;;;;;;32.45;5.07;;;9.00;99.90;;;;;;5082380;28;20470;-74
2021/12/28 05:52:29;;;;;;;24.90;3.85;;;9.00;99.90;;;;;;5071083;28;20024;-74
2021/12/28 05:54:55;;;;;;;19.63;4.45;;;9.00;99.90;;;;;;5072211;28;20033;-74
2021/12/28 05:57:21;;;;;;;28.75;4.28;;;9.10;99.90;;;;;;5072203;28;20092;-74
2021/12/28 05:59:46;;;;;;;18.77;3.63;;;9.00;99.90;;;;;;5072434;28;20495;-74
2021/12/28 06:02:13;;;;;;;22.25;3.88;;;9.10;99.90;;;;;;5072468;28;20021;-74
2021/12/28 06:04:39;;;;;;;23.73;4.07;;;9.00;99.90;;;;;;5071920;28;20035;-74
2021/12/28 06:07:05;;;;;;;22.80;4.45;;;9.00;99.90;;;;;;5072108;28;20032;-74
2021/12/28 06:09:30;;;;;;;20.15;3.80;;;9.00;99.90;;;;;;5072678;28;20036;-74
2021/12/28 06:11:56;;;;;;;22.90;4.88;;;9.00;99.90;;;;;;5072355;28;20058;-74
2021/12/28 06:14:22;;;;;;;23.58;5.00;;;9.00;99.90;;;;;;5072043;28;20471;-74
2021/12/28 06:16:47;;;;;;;20.55;3.83;;;9.00;99.90;;;;;;5071933;28;20042;-74
2021/12/28 06:19:13;;;;;;;19.67;3.45;;;9.10;99.90;;;;;;5071701;28;20348;-74
2021/12/28 06:21:38;;;;;;;19.55;4.03;;;9.10;99.90;;;;;;5071746;28;20024;-74
2021/12/28 06:24:06;;;;;;;16.23;3.55;;;9.00;99.90;;;;;;5093719;28;20055;-74
2021/12/28 06:26:33;;;;;;;21.25;4.93;;;9.00;99.90;;;;;;5112249;28;20028;-75
2021/12/28 06:29:00;;;;;;;22.25;4.13;;;9.00;99.90;;;;;;5112166;28;20031;-74
2021/12/28 06:31:28;;;;;;;16.70;3.10;;;9.10;99.90;;;;;;5112167;28;20436;-74
2021/12/28 06:33:55;;;;;;;17.77;3.85;;;9.10;99.90;;;;;;5112101;28;20023;-74
2021/12/28 06:36:21;;;;;;;22.90;3.40;;;9.10;99.90;;;;;;5112409;28;20101;-74
2021/12/28 06:38:47;;;;;;;23.10;4.47;;;9.10;99.90;;;;;;5111953;28;20107;-74
2021/12/28 06:41:13;;;;;;;19.13;3.38;;;9.10;99.90;;;;;;5112066;28;20051;-74
2021/12/28 06:43:38;;;;;;;22.08;4.90;;;9.10;99.90;;;;;;5111871;28;20023;-74
2021/12/28 06:46:04;;;;;;;20.77;3.20;;;9.10;99.90;;;;;;5111984;28;20032;-74
2021/12/28 06:48:30;;;;;;;25.67;3.83;;;9.20;99.90;;;;;;5112113;28;20423;-74
2021/12/28 06:50:55;;;;;;;25.95;3.78;;;9.20;99.90;;;;;;5076176;28;20116;-74
2021/12/28 06:53:21;;;;;;;21.48;3.13;;;9.20;99.90;;;;;;5092113;28;20026;-75
2021/12/28 06:55:46;;;;;;;26.67;4.50;;;9.20;99.90;;;;;;5092154;28;20036;-74
2021/12/28 06:58:12;;;;;;;15.02;3.00;;;9.20;99.90;;;;;;5103139;28;20036;-74
2021/12/28 07:00:39;;;;;;;22.25;3.88;;;9.20;99.90;;;;;;5106036;28;20017;-74
2021/12/28 07:03:05;;;;;;;22.73;3.80;;;9.20;99.90;;;;;;5111470;28;20053;-74
2021/12/28 07:05:31;;;;;;;17.58;3.78;;;9.20;99.90;;;;;;5088924;28;20058;-74
2021/12/28 07:07:57;;;;;;;24.55;4.30;;;9.20;99.90;;;;;;5090468;28;20367;-74
2021/12/28 07:10:23;;;;;;;24.13;4.22;;;9.20;99.90;;;;;;5105793;28;20039;-74
2021/12/28 07:12:50;;;;;;;18.00;3.95;;;9.20;99.90;;;;;;5104343;28;20466;-75
2021/12/28 07:15:17;;;;;;;15.38;3.60;;;9.20;99.90;;;;;;5103567;28;20028;-74
2021/12/28 07:17:42;;;;;;;22.90;5.30;;;9.20;99.90;;;;;;5105618;28;20024;-74
2021/12/28 07:20:08;;;;;;;23.08;4.60;;;9.10;99.90;;;;;;5101281;28;20528;-74
2021/12/28 07:22:35;;;;;;;22.83;3.70;;;9.10;99.90;;;;;;5104690;28;20020;-74
2021/12/28 07:25:00;;;;;;;17.75;3.60;;;9.10;99.90;;;;;;5106778;28;20051;-77
2021/12/28 07:27:26;;;;;;;26.10;4.63;;;9.10;99.90;;;;;;5110182;28;20077;-77
2021/12/28 07:29:52;;;;;;;23.38;3.63;;;9.10;99.90;;;;;;5105475;28;20032;-77
2021/12/28 07:32:18;;;;;;;25.38;5.20;;;9.10;99.90;;;;;;5066060;28;20119;-77
2021/12/28 07:34:43;;;;;;;20.38;3.85;;;9.20;99.90;;;;;;5083689;28;20463;-76
2021/12/28 07:37:09;;;;;;;17.73;3.55;;;9.10;99.90;;;;;;5098879;28;20012;-75
2021/12/28 07:39:35;;;;;;;16.30;3.35;;;9.20;99.90;;;;;;5101151;28;20028;-74
2021/12/28 07:42:00;;;;;;;15.60;3.83;;;9.20;99.90;;;;;;5095090;28;20621;-77
2021/12/28 07:44:26;;;;;;;15.90;3.85;;;9.20;99.90;;;;;;5094906;28;20095;-77
2021/12/28 07:46:52;;;;;;;22.77;4.20;;;9.20;99.90;;;;;;5095965;28;20350;-76
2021/12/28 07:49:18;;;;;;;22.30;4.40;;;9.20;99.90;;;;;;5094908;28;20077;-77
2021/12/28 07:51:43;;;;;;;17.10;3.40;;;9.20;99.90;;;;;;5091262;28;20028;-74
2021/12/28 07:54:09;;;;;;;16.73;3.38;;;9.20;99.90;;;;;;5089839;28;20024;-74
2021/12/28 07:56:35;;;;;;;18.38;3.80;;;9.30;99.90;;;;;;5093022;28;20044;-77
2021/12/28 07:59:00;;;;;;;17.98;4.57;;;9.20;99.90;;;;;;5092314;28;20028;-77
2021/12/28 08:01:26;;;;;;;15.68;3.83;;;9.30;99.90;;;;;;5088237;28;20042;-77
2021/12/28 08:03:51;;;;;;;16.90;3.80;;;9.30;99.90;;;;;;5097101;28;20050;-75
2021/12/28 08:06:17;;;;;;;17.95;4.55;;;9.30;99.90;;;;;;5102251;28;20024;-77
2021/12/28 08:08:43;;;;;;;23.05;4.35;;;9.20;99.90;;;;;;5083788;28;20051;-77
2021/12/28 08:11:08;;;;;;;17.85;4.45;;;9.20;99.90;;;;;;5105688;28;20826;-77
2021/12/28 08:13:34;;;;;;;22.20;5.03;;;9.20;99.90;;;;;;5106597;28;20040;-77
2021/12/28 08:16:00;;;;;;;18.92;4.38;;;9.20;99.90;;;;;;5094511;28;20111;-79
2021/12/28 08:18:25;;;;;;;19.77;4.65;;;9.20;99.90;;;;;;5096726;28;20437;-77
2021/12/28 08:20:51;;;;;;;15.07;4.75;;;9.20;99.90;;;;;;5094929;28;20020;-78
2021/12/28 08:23:17;;;;;;;20.50;4.57;;;9.20;99.90;;;;;;5105941;28;20028;-78
2021/12/28 08:25:42;;;;;;;24.52;4.55;;;9.20;99.90;;;;;;5114847;28;20043;-78
2021/12/28 08:28:08;;;;;;;22.27;5.03;;;9.20;99.90;;;;;;5103920;28;20024;-78
2021/12/28 08:30:36;;;;;;;24.95;5.82;;;9.20;99.90;;;;;;5099605;28;20028;-78
2021/12/28 08:33:04;;;;;;;13.02;4.32;;;9.20;99.90;;;;;;5079776;28;20383;-78
2021/12/28 08:35:30;;;;;;;25.15;4.93;;;9.30;99.90;;;;;;5102841;28;20130;-78
2021/12/28 08:37:56;;;;;;;14.15;4.10;;;9.20;99.90;;;;;;5082559;28;20122;-78
2021/12/28 08:40:22;;;;;;;21.23;4.90;;;9.30;99.90;;;;;;5096260;28;20147;-78
2021/12/28 08:42:48;;;;;;;15.25;5.05;;;9.30;99.90;;;;;;5105760;28;20081;-78
2021/12/28 08:45:14;;;;;;;16.85;4.90;;;9.20;99.90;;;;;;5106705;28;20536;-78
2021/12/28 08:47:41;;;;;;;21.05;4.60;;;9.30;99.90;;;;;;5101548;28;20024;-78
2021/12/28 08:50:08;;;;;;;19.85;5.00;;;9.30;99.90;;;;;;5102486;28;20020;-78
2021/12/28 08:52:35;;;;;;;15.02;4.10;;;9.30;99.90;;;;;;5089245;28;20032;-78
2021/12/28 08:55:01;;;;;;;14.38;4.57;;;9.30;99.90;;;;;;5104118;28;20031;-78
2021/12/28 08:57:26;;;;;;;18.88;4.80;;;9.40;99.90;;;;;;5103535;28;20016;-78
2021/12/28 08:59:53;;;;;;;16.20;4.43;;;9.40;99.90;;;;;;5104110;28;20519;-78
2021/12/28 09:02:19;;;;;;;20.65;4.88;;;9.40;99.90;;;;;;5107040;28;20484;-78
2021/12/28 09:04:46;;;;;;;22.25;5.72;;;9.40;99.90;;;;;;5106037;28;20027;-79
2021/12/28 09:07:16;;;;;;;14.32;5.25;;;9.40;99.90;;;;;;5113709;28;20015;-79
2021/12/28 09:09:42;;;;;;;22.70;4.60;;;9.40;99.90;;;;;;5095750;28;20059;-80
2021/12/28 09:12:09;;;;;;;18.48;5.47;;;9.40;99.90;;;;;;5095852;28;20024;-80
2021/12/28 09:14:35;;;;;;;19.75;5.43;;;9.40;99.90;;;;;;5114105;28;20023;-79
2021/12/28 09:17:01;;;;;;;19.40;6.40;;;9.50;99.90;;;;;;5112430;28;20032;-79
2021/12/28 09:19:27;;;;;;;13.32;5.60;;;9.40;99.90;;;;;;5095882;28;20111;-78
2021/12/28 09:21:53;;;;;;;15.48;6.30;;;9.50;99.90;;;;;;5073789;28;20040;-77
2021/12/28 09:24:19;;;;;;;16.15;5.93;;;9.50;99.90;;;;;;5089417;28;20044;-77
2021/12/28 09:26:44;;;;;;;17.65;7.25;;;9.60;99.90;;;;;;5102606;28;20020;-77
2021/12/28 09:29:10;;;;;;;16.63;6.85;;;9.60;99.90;;;;;;5089560;28;20020;-77
2021/12/28 09:31:35;;;;;;;15.50;6.65;;;9.60;99.90;;;;;;5061138;28;20135;-77
2021/12/28 09:34:01;;;;;;;15.52;6.70;;;9.60;99.90;;;;;;5092980;28;20475;-77
2021/12/28 09:36:27;;;;;;;18.00;7.50;;;9.60;99.90;;;;;;5092822;28;20032;-78
2021/12/28 09:38:53;;;;;;;13.18;6.53;;;9.60;99.90;;;;;;5092742;28;20024;-77
2021/12/28 09:41:18;;;;;;;13.10;6.30;;;9.70;99.90;;;;;;5097261;28;20026;-76
2021/12/28 09:43:48;;;;;;;13.88;6.72;;;9.60;99.90;;;;;;5100510;28;20031;-75
2021/12/28 09:46:17;;;;;;;13.27;6.82;;;9.60;99.90;;;;;;5080946;28;20028;-76
2021/12/28 09:48:42;;;;;;;15.02;6.88;;;9.70;99.90;;;;;;5066501;28;20111;-76
2021/12/28 09:51:09;;;;;;;15.63;7.68;;;9.70;99.90;;;;;;5093234;28;20063;-76
2021/12/28 09:53:41;;;;;;;17.05;7.78;;;9.80;99.90;;;;;;5092349;28;20024;-75
2021/12/28 09:56:07;;;;;;;;;;;9.70;99.90;;;;;;5065420;28;20024;-76
2021/12/28 09:58:35;;;;;;;20.15;7.72;;;9.70;99.90;;;;;;5091831;28;19908;-76
2021/12/28 10:01:01;;;;;;;11.45;6.93;;;9.80;99.90;;;;;;5070432;28;20102;-79
2021/12/28 10:03:29;;;;;;;12.25;7.13;;;9.80;99.90;;;;;;5075938;28;20386;-75
2021/12/28 10:05:55;;;;;;;11.38;6.72;;;9.80;99.90;;;;;;5093880;28;20046;-79
2021/12/28 10:08:25;;;;;;;13.60;6.88;;;9.90;99.90;;;;;;5091750;28;20028;-83
2021/12/28 10:10:56;;;;;;;15.77;7.00;;;9.90;99.90;;;;;;5091127;28;20028;-79
2021/12/28 10:13:24;;;;;;;14.95;6.90;;;9.90;99.90;;;;;;5073859;28;20027;-78
2021/12/28 10:15:51;;;;;;;16.25;8.38;;;9.90;99.90;;;;;;5073588;28;20044;-78
2021/12/28 10:18:20;;;;;;;15.27;6.78;;;10.00;99.90;;;;;;5073971;28;20446;-78
2021/12/28 10:20:53;;;;;;;15.45;6.72;;;9.90;99.90;;;;;;5081784;28;20017;-78
2021/12/28 10:23:22;;;;;;;12.68;6.97;;;10.00;99.90;;;;;;5071767;28;20052;-78
2021/12/28 10:25:55;;;;;;;11.88;6.70;;;10.10;99.90;;;;;;5049705;28;20068;-77
2021/12/28 10:28:29;;;;;;;17.90;7.07;;;10.10;99.90;;;;;;5071561;28;20070;-78
2021/12/28 10:30:59;;;;;;;16.70;7.78;;;10.10;99.90;;;;;;5091977;28;20024;-76
2021/12/28 10:33:28;;;;;;;11.27;7.38;;;10.00;99.90;;;;;;5073299;28;20028;-76
2021/12/28 10:36:11;;;;;;;12.90;7.13;;;10.10;99.90;;;;;;5091807;28;20482;-76
2021/12/28 10:38:44;;;;;;;16.33;8.50;;;10.10;99.90;;;;;;5074884;28;20032;-76
2021/12/28 10:41:16;;;;;;;11.73;7.72;;;10.20;99.90;;;;;;5057635;28;20447;-77
2021/12/28 10:43:45;;;;;;;12.32;7.15;;;10.20;99.90;;;;;;5057525;28;20103;-77
2021/12/28 10:46:22;;;;;;;13.45;7.95;;;10.20;99.90;;;;;;5075390;28;20025;-79
2021/12/28 10:48:55;;;;;;;12.13;7.75;;;10.20;99.90;;;;;;5057699;28;20032;-80
2021/12/28 10:51:31;;;;;;;12.18;7.25;;;10.30;99.90;;;;;;5073325;28;20026;-80
2021/12/28 10:56:35;;;;;;;13.60;8.75;;;10.30;99.90;;;;;;5086466;28;20032;-81
2021/12/28 10:59:02;;;;;;;12.82;8.00;;;10.30;99.90;;;;;;5080055;28;20020;-80
2021/12/28 11:01:33;;;;;;;15.20;8.60;;;10.40;99.90;;;;;;5087352;28;20544;-81
2021/12/28 11:04:04;;;;;;;14.55;8.50;;;10.40;99.90;;;;;;5082042;28;20031;-80
2021/12/28 11:06:32;;;;;;;11.82;8.23;;;10.40;99.90;;;;;;5087300;28;20040;-78
2021/12/28 11:09:02;;;;;;;12.82;8.48;;;10.40;99.90;;;;;;5084144;28;20024;-80
2021/12/28 11:11:29;;;;;;;13.82;8.35;;;10.40;99.90;;;;;;5073802;28;20097;-79
2021/12/28 11:13:59;;;;;;;10.43;7.80;;;10.40;99.90;;;;;;5074083;28;20025;-81
2021/12/28 11:16:26;;;;;;;12.65;8.02;;;10.50;99.90;;;;;;5073997;28;20036;-76
2021/12/28 11:18:54;;;;;;;12.32;7.93;;;10.40;99.90;;;;;;5079244;28;20023;-76
2021/12/28 11:21:38;;;;;;;17.00;7.50;;;10.40;99.90;;;;;;5060289;28;20470;-76
2021/12/28 11:24:15;;;;;;;12.02;8.15;;;10.50;99.90;;;;;;5056788;28;20111;-77
2021/12/28 11:26:49;;;;;;;11.30;6.78;;;10.40;99.90;;;;;;5079726;28;20047;-76
2021/12/28 11:29:17;;;;;;;13.43;8.00;;;10.40;99.90;;;;;;5084275;28;20473;-76
2021/12/28 11:31:50;;;;;;;12.65;7.90;;;10.30;99.90;;;;;;5083678;28;20121;-75
2021/12/28 11:34:21;;;;;;;12.63;7.95;;;10.30;99.90;;;;;;5086040;28;20347;-75
2021/12/28 11:36:56;;;;;;;13.73;8.45;;;10.30;99.90;;;;;;5083171;28;20036;-76
2021/12/28 11:39:32;;;;;;;19.10;10.10;;;10.40;99.90;;;;;;5080771;28;20030;-76
2021/12/28 11:41:59;;;;;;;16.67;10.15;;;10.40;99.90;;;;;;5083402;28;20019;-76
2021/12/28 11:44:29;;;;;;;15.63;9.98;;;10.40;99.90;;;;;;5082390;28;20031;-76
2021/12/28 11:46:56;;;;;;;15.30;8.88;;;10.40;99.90;;;;;;5084328;28;20024;-76
2021/12/28 11:49:26;;;;;;;15.63;9.25;;;10.40;99.90;;;;;;5081244;28;20016;-77
2021/12/28 11:51:53;;;;;;;14.15;9.75;;;10.30;99.90;;;;;;5078202;28;20115;-76
2021/12/28 11:54:21;;;;;;;14.65;8.77;;;10.40;99.90;;;;;;5083907;28;20028;-75
2021/12/28 11:56:52;;;;;;;14.98;8.82;;;10.40;99.90;;;;;;5083866;28;20498;-76
2021/12/28 11:59:19;;;;;;;15.02;9.52;;;10.40;99.90;;;;;;5082274;28;20031;-76
2021/12/28 12:01:51;;;;;;;16.45;9.15;;;10.40;99.90;;;;;;5092684;28;20058;-76
2021/12/28 12:07:00;;;;;;;11.35;7.35;;;10.40;99.90;;;;;;5074156;28;20469;-76
2021/12/28 12:09:26;;;;;;;10.73;7.10;;;10.40;99.90;;;;;;5055972;28;20041;-74
2021/12/28 12:12:13;;;;;;;12.48;6.97;;;10.40;99.90;;;;;;5055556;28;20032;-75
2021/12/28 12:14:51;;;;;;;16.13;7.05;;;10.40;99.90;;;;;;5074105;28;20032;-76
2021/12/28 12:17:28;;;;;;;11.38;6.57;;;10.30;99.90;;;;;;5055585;28;20040;-75
2021/12/28 12:20:01;;;;;;;9.80;6.00;;;10.30;99.90;;;;;;5053935;28;20064;-76
2021/12/28 12:22:33;;;;;;;9.18;5.88;;;10.30;99.90;;;;;;5070863;28;20020;-75
2021/12/28 12:25:07;;;;;;;8.85;6.10;;;10.30;99.90;;;;;;5071682;28;20052;-75
2021/12/28 12:27:55;;;;;;;9.23;6.03;;;10.30;99.90;;;;;;5072943;28;20063;-78
2021/12/28 12:30:24;;;;;;;8.68;4.88;;;10.40;99.90;;;;;;5055352;28;20093;-83
2021/12/28 12:33:05;;;;;;;6.82;4.22;;;10.40;99.90;;;;;;5055341;28;20035;-77
2021/12/28 12:35:50;;;;;;;7.85;4.97;;;10.30;99.90;;;;;;5074337;28;20031;-78
2021/12/28 12:38:16;;;;;;;3.65;1.92;;;10.30;99.90;;;;;;5073237;28;20055;-78
2021/12/28 12:41:01;;;;;;;2.35;1.20;;;10.30;99.90;;;;;;5055469;28;20024;-77
2021/12/28 12:43:39;;;;;;;3.38;1.50;;;10.20;99.90;;;;;;5074003;28;20021;-78
2021/12/28 12:46:23;;;;;;;7.88;1.70;;;10.20;99.90;;;;;;5055249;28;20055;-80
2021/12/28 12:48:52;;;;;;;7.65;1.95;;;10.20;99.90;;;;;;5055035;28;20050;-78
2021/12/28 12:51:20;;;;;;;8.02;1.67;;;10.00;99.90;;;;;;5051724;28;20033;-78
2021/12/28 12:54:01;;;;;;;13.02;1.50;;;10.00;99.90;;;;;;5053468;28;20490;-78